CheckWX is a tool to help pilots better visualize weather data.  It is not intended as a substitute for an official pre-flight weather briefing.

17:08:57 UTC

KDOV METAR
Dover AFB Airport
Dover, Delaware, USA
Current

1 hour ago

KDOV 211556Z AUTO 29007KT 10SM CLR 35/24 A2987 RMK AO2 SLP118 T03450241 $
Observed
Jul-21 @ 15:56 UTC
Wind
  • 290° at 7 KTS
Visibility
10 SM
Flight Rules
VFR
Cloud Levels
  • Clear skies
Temperature
35°C / 95°F
Dewpoint
24°C / 75°F
Heat Index
42°C / 107°F
Humidity
53%
Altimeter
29.87" Hg
Pressure
1011.52 hPa
Previous

2 hours ago

KDOV 211456Z AUTO 31009KT 10SM CLR 34/25 A2987 RMK AO2 SLP118 T03370245 50001 $
Observed
Jul-21 @ 14:56 UTC
Wind
  • 310° at 9 KTS
Visibility
10 SM
Flight Rules
VFR
Cloud Levels
  • Clear skies
Temperature
34°C / 93°F
Dewpoint
25°C / 77°F
Heat Index
42°C / 107°F
Humidity
59%
Altimeter
29.87" Hg
Pressure
1011.52 hPa
Previous

3 hours ago

KDOV 211356Z AUTO 30010KT 10SM CLR 33/25 A2987 RMK AO2 SLP118 T03320246 $
Observed
Jul-21 @ 13:56 UTC
Wind
  • 300° at 10 KTS
Visibility
10 SM
Flight Rules
VFR
Cloud Levels
  • Clear skies
Temperature
33°C / 91°F
Dewpoint
25°C / 77°F
Heat Index
40°C / 104°F
Humidity
63%
Altimeter
29.87" Hg
Pressure
1011.52 hPa